This is the latest recevied weather packets stored in our database for station/object KC9VAF. If no packets are shown the sender has not sent any weather packets the latest 10 day(s).
| Time | Temp. | Humidity | Pressure | Rain* | Wind** | Luminosity | Snow |
|---|---|---|---|---|---|---|---|
| 1778204862 | 5° C | 73% | 1012 hPa | 0 mm | - | 0 W/m² | - |
| 1778204558 | 5° C | 73% | 1011.9 hPa | 0 mm | - | 0 W/m² | - |
| 1778204254 | 5° C | 72% | 1011.8 hPa | 0 mm | - | 0 W/m² | - |
| 1778203951 | 5.56° C | 72% | 1011.9 hPa | 0 mm | - | 0 W/m² | - |
| 1778203648 | 5.56° C | 71% | 1011.7 hPa | 0 mm | - | 0 W/m² | - |
| 1778203345 | 5.56° C | 71% | 1011.7 hPa | 0 mm | - | 0 W/m² | - |
| 1778203043 | 5.56° C | 70% | 1011.7 hPa | 0 mm | - | 0 W/m² | - |
| 1778202740 | 5.56° C | 69% | 1011.8 hPa | 0 mm | - | 0 W/m² | - |
| 1778202437 | 5.56° C | 68% | 1011.7 hPa | 0 mm | - | 0 W/m² | - |
| 1778202135 | 6.11° C | 67% | 1011.6 hPa | 0 mm | - | 1 W/m² | - |
| 1778201832 | 6.11° C | 66% | 1011.4 hPa | 0 mm | - | 3 W/m² | - |
| 1778201529 | 6.11° C | 65% | 1011.4 hPa | 0 mm | - | 5 W/m² | - |
| 1778201224 | 6.11° C | 66% | 1011.3 hPa | 0 mm | - | 8 W/m² | - |
| 1778200921 | 6.67° C | 65% | 1011.1 hPa | 0 mm | - | 11 W/m² | - |
| 1778200617 | 6.67° C | 65% | 1011.1 hPa | 0 mm | - | 14 W/m² | - |
| 1778200315 | 6.67° C | 64% | 1011.1 hPa | 0 mm | - | 18 W/m² | - |
| 1778200011 | 6.67° C | 63% | 1010.9 hPa | 0 mm | - | 23 W/m² | - |
| 1778199709 | 7.22° C | 62% | 1011.3 hPa | 0 mm | - | 29 W/m² | - |
| 1778199404 | 7.22° C | 61% | 1011.1 hPa | 0 mm | - | 31 W/m² | - |
| 1778199100 | 7.78° C | 61% | 1011.4 hPa | 0 mm | - | 39 W/m² | - |
| 1778198796 | 7.78° C | 61% | 1011 hPa | 0 mm | - | 42 W/m² | - |
| 1778198494 | 7.78° C | 62% | 1011.1 hPa | 0 mm | - | 37 W/m² | - |
| 1778198190 | 8.33° C | 60% | 1011.1 hPa | 0 mm | - | 39 W/m² | - |
| 1778197888 | 8.33° C | 62% | 1011.1 hPa | 0 mm | - | 58 W/m² | - |
| 1778197585 | 8.33° C | 66% | 1011 hPa | 0 mm | - | 83 W/m² | - |
* Rain latest hour (hover to see other rain measurements)
** Current wind speed in m/s (hover to see current wind gust speed)